createdAt,value
2018-12-26T00:01:29.298Z,14.67
2018-12-26T00:03:59.133Z,13.67
2018-12-26T00:06:28.537Z,12.97
2018-12-26T00:09:00.379Z,13.03
2018-12-26T00:11:30.232Z,13.40
2018-12-26T00:13:59.399Z,11.43
2018-12-26T00:16:29.551Z,13.63
2018-12-26T00:18:58.934Z,13.40
2018-12-26T00:21:28.834Z,12.83
2018-12-26T00:24:00.697Z,12.93
2018-12-26T00:26:31.164Z,12.43
2018-12-26T00:29:00.978Z,14.13
2018-12-26T00:31:30.104Z,14.87
2018-12-26T00:33:59.842Z,13.50
2018-12-26T00:36:31.503Z,13.70
2018-12-26T00:39:05.037Z,14.60
2018-12-26T00:41:35.666Z,13.43
2018-12-26T00:44:06.164Z,15.13
2018-12-26T00:46:36.735Z,14.17
2018-12-26T00:49:05.821Z,15.63
2018-12-26T00:51:35.293Z,14.43
2018-12-26T00:54:05.392Z,14.17
2018-12-26T00:56:35.003Z,15.00
2018-12-26T00:59:04.603Z,14.93
2018-12-26T01:01:36.224Z,13.63
2018-12-26T01:04:05.713Z,13.07
2018-12-26T01:06:34.992Z,13.63
2018-12-26T01:09:08.345Z,13.73
2018-12-26T01:11:40.514Z,15.37
2018-12-26T01:14:09.919Z,14.03
2018-12-26T01:16:39.083Z,14.53
2018-12-26T01:19:08.586Z,14.77
2018-12-26T01:21:39.574Z,13.30
2018-12-26T01:24:09.073Z,13.13
2018-12-26T01:26:38.608Z,13.77
2018-12-26T01:29:09.255Z,13.77
2018-12-26T01:31:39.889Z,14.17
2018-12-26T01:34:09.946Z,14.57
2018-12-26T01:36:39.908Z,14.30
2018-12-26T01:39:09.161Z,13.87
2018-12-26T01:41:40.815Z,14.10
2018-12-26T01:44:10.362Z,12.93
2018-12-26T01:46:40.715Z,13.87
2018-12-26T01:49:11.258Z,12.20
2018-12-26T01:51:43.634Z,12.30
2018-12-26T01:54:12.781Z,13.23
2018-12-26T01:56:45.114Z,11.77
2018-12-26T01:59:16.020Z,11.67
2018-12-26T02:01:45.410Z,13.77
2018-12-26T02:04:15.134Z,12.83
2018-12-26T02:06:44.723Z,11.07
2018-12-26T02:09:15.762Z,12.70
2018-12-26T02:11:49.054Z,12.80
2018-12-26T02:14:18.780Z,9.93
2018-12-26T02:16:49.389Z,12.17
2018-12-26T02:19:19.288Z,12.27
2018-12-26T02:21:50.239Z,12.43
2018-12-26T02:24:31.626Z,14.30
2018-12-26T02:27:02.419Z,11.20
2018-12-26T02:29:31.889Z,11.30
2018-12-26T02:32:01.856Z,12.40
2018-12-26T02:34:31.348Z,13.83
2018-12-26T02:37:03.067Z,12.47
2018-12-26T02:39:34.126Z,11.90
2018-12-26T02:42:04.023Z,11.60
2018-12-26T02:44:33.814Z,12.83
2018-12-26T02:47:03.550Z,11.83
2018-12-26T02:49:33.524Z,11.73
2018-12-26T02:52:03.159Z,12.90
2018-12-26T02:54:34.004Z,12.73
2018-12-26T02:57:03.633Z,12.80
2018-12-26T02:59:34.028Z,12.80
2018-12-26T03:02:04.094Z,11.80
2018-12-26T03:04:36.305Z,12.17
2018-12-26T03:07:05.976Z,10.67
2018-12-26T03:09:35.826Z,12.10
2018-12-26T03:12:05.581Z,11.20
2018-12-26T03:14:35.414Z,11.47
2018-12-26T03:17:04.614Z,11.13
2018-12-26T03:19:35.286Z,11.83
2018-12-26T03:22:04.407Z,12.13
2018-12-26T03:24:33.956Z,12.13
2018-12-26T03:27:03.094Z,11.40
2018-12-26T03:29:33.331Z,10.23
2018-12-26T03:32:03.046Z,11.27
2018-12-26T03:34:33.110Z,10.50
2018-12-26T03:37:02.367Z,11.33
2018-12-26T03:39:32.254Z,10.07
2018-12-26T03:42:01.562Z,10.73
2018-12-26T03:44:32.286Z,9.87
2018-12-26T03:47:02.901Z,10.10
2018-12-26T03:49:32.518Z,10.77
2018-12-26T03:52:02.979Z,9.93
2018-12-26T03:54:33.699Z,9.83
2018-12-26T03:57:06.437Z,10.17
2018-12-26T03:59:35.795Z,10.40
2018-12-26T04:02:05.289Z,10.03
2018-12-26T04:04:35.285Z,10.10
2018-12-26T04:07:05.713Z,9.20
2018-12-26T04:09:35.336Z,9.10
2018-12-26T04:12:05.454Z,8.27
2018-12-26T04:14:34.630Z,7.50
2018-12-26T04:17:04.431Z,8.53
2018-12-26T04:19:36.461Z,8.93
2018-12-26T04:22:06.450Z,9.43
2018-12-26T04:24:36.041Z,8.73
2018-12-26T04:27:15.293Z,7.10
2018-12-26T04:29:37.219Z,7.97
2018-12-26T04:32:06.511Z,7.03
2018-12-26T04:34:35.986Z,9.33
2018-12-26T04:37:05.507Z,8.50
2018-12-26T04:39:34.607Z,7.43
2018-12-26T04:42:04.942Z,8.90
2018-12-26T04:44:34.399Z,7.40
2018-12-26T04:47:03.821Z,8.37
2018-12-26T04:49:34.282Z,8.57
2018-12-26T04:52:04.617Z,8.00
2018-12-26T04:54:34.008Z,7.47
2018-12-26T04:57:03.123Z,8.10
2018-12-26T04:59:33.715Z,7.47
2018-12-26T05:02:02.972Z,8.47
2018-12-26T05:04:32.375Z,7.93
2018-12-26T05:07:01.652Z,7.90
2018-12-26T05:09:31.383Z,7.20
2018-12-26T05:12:00.782Z,7.07
2018-12-26T05:14:30.252Z,6.03
2018-12-26T05:16:59.764Z,7.43
2018-12-26T05:19:29.295Z,6.80
2018-12-26T05:21:59.056Z,6.17
2018-12-26T05:24:28.435Z,5.20
2018-12-26T05:26:58.222Z,6.50
2018-12-26T05:29:27.836Z,6.53
2018-12-26T05:31:57.501Z,6.77
2018-12-26T05:34:26.828Z,5.23
2018-12-26T05:36:56.343Z,5.13
2018-12-26T05:39:25.795Z,4.83
2018-12-26T05:41:55.314Z,6.03
2018-12-26T05:44:24.439Z,5.30
2018-12-26T05:46:53.854Z,4.33
2018-12-26T05:49:24.540Z,4.97
2018-12-26T05:51:53.830Z,5.30
2018-12-26T05:54:23.645Z,5.10
2018-12-26T05:56:52.800Z,4.73
2018-12-26T05:59:22.109Z,5.07
2018-12-26T06:01:51.792Z,4.70
2018-12-26T06:04:21.162Z,4.57
2018-12-26T06:06:50.960Z,5.37
2018-12-26T06:09:21.249Z,5.00
2018-12-26T06:11:50.551Z,5.33
2018-12-26T06:14:22.836Z,5.37
2018-12-26T06:16:52.233Z,5.00
2018-12-26T06:19:21.814Z,4.93
2018-12-26T06:21:51.170Z,5.30
2018-12-26T06:24:21.842Z,5.73
2018-12-26T06:26:51.973Z,5.60
2018-12-26T06:29:21.458Z,5.30
2018-12-26T06:31:50.920Z,5.80
2018-12-26T06:34:20.593Z,6.27
2018-12-26T06:36:50.790Z,7.03
2018-12-26T06:39:22.718Z,6.40
2018-12-26T06:41:52.178Z,6.13
2018-12-26T06:44:21.746Z,6.13
2018-12-26T06:46:51.987Z,8.33
2018-12-26T06:49:21.578Z,7.03
2018-12-26T06:51:51.318Z,6.20
2018-12-26T06:54:21.002Z,5.80
2018-12-26T06:56:50.718Z,7.07
2018-12-26T06:59:19.861Z,6.03
2018-12-26T07:01:49.627Z,6.27
2018-12-26T07:04:18.639Z,8.53
2018-12-26T07:06:48.150Z,8.20
2018-12-26T07:09:17.787Z,7.23
2018-12-26T07:11:47.678Z,8.90
2018-12-26T07:14:16.745Z,8.43
2018-12-26T07:16:45.848Z,7.90
2018-12-26T07:19:17.507Z,7.60
2018-12-26T07:21:49.019Z,7.80
2018-12-26T07:24:19.912Z,8.27
2018-12-26T07:26:50.322Z,7.93
2018-12-26T07:29:20.054Z,8.23
2018-12-26T07:31:49.276Z,7.70
2018-12-26T07:34:18.587Z,9.23
2018-12-26T07:36:53.536Z,8.30
2018-12-26T07:39:23.145Z,8.53
2018-12-26T07:41:52.444Z,8.93
2018-12-26T07:44:21.854Z,9.03
2018-12-26T07:46:51.500Z,9.13
2018-12-26T07:49:21.213Z,8.43
2018-12-26T07:51:50.804Z,8.53
2018-12-26T07:54:20.801Z,8.20
2018-12-26T07:56:50.350Z,8.87
2018-12-26T07:59:20.498Z,9.40
2018-12-26T08:01:53.516Z,8.57
2018-12-26T08:04:23.303Z,8.90
2018-12-26T08:06:53.645Z,9.60
2018-12-26T08:09:23.168Z,9.13
2018-12-26T08:11:52.643Z,10.13
2018-12-26T08:14:22.437Z,8.97
2018-12-26T08:16:53.383Z,8.83
2018-12-26T08:19:23.269Z,9.43
2018-12-26T08:21:54.277Z,8.67
2018-12-26T08:24:23.492Z,8.80
2018-12-26T08:26:54.978Z,8.20
2018-12-26T08:29:24.082Z,7.77
2018-12-26T08:31:54.115Z,8.93
2018-12-26T08:34:23.857Z,8.27
2018-12-26T08:36:53.638Z,7.47
2018-12-26T08:39:23.786Z,7.23
2018-12-26T08:41:53.219Z,7.10
2018-12-26T08:44:22.774Z,6.23
2018-12-26T08:46:52.810Z,6.87
2018-12-26T08:49:22.423Z,6.77
2018-12-26T08:51:52.205Z,6.70
2018-12-26T08:54:22.837Z,7.07
2018-12-26T08:56:55.284Z,5.60
2018-12-26T08:59:24.592Z,6.77
2018-12-26T09:01:54.349Z,6.10
2018-12-26T09:04:31.271Z,5.37
2018-12-26T09:07:02.618Z,5.67
2018-12-26T09:09:31.694Z,7.37
2018-12-26T09:12:01.111Z,4.90
2018-12-26T09:14:30.241Z,5.20
2018-12-26T09:16:59.566Z,4.73
2018-12-26T09:19:29.083Z,5.13
2018-12-26T09:21:58.608Z,5.40
2018-12-26T09:24:28.043Z,4.80
2018-12-26T09:26:57.812Z,4.63
2018-12-26T09:29:27.424Z,4.87
2018-12-26T09:31:57.286Z,5.53
2018-12-26T09:34:28.566Z,4.97
2018-12-26T09:36:59.479Z,4.70
2018-12-26T09:39:28.848Z,4.77
2018-12-26T09:41:58.436Z,5.17
2018-12-26T09:44:28.949Z,5.13
2018-12-26T09:47:15.649Z,5.30
2018-12-26T09:49:46.070Z,4.70
2018-12-26T09:52:15.718Z,5.60
2018-12-26T09:54:45.147Z,5.80
2018-12-26T09:57:19.728Z,5.80
2018-12-26T09:59:49.270Z,5.13
2018-12-26T10:02:18.764Z,5.13
2018-12-26T10:04:48.919Z,5.23
2018-12-26T10:07:20.247Z,5.47
2018-12-26T10:09:49.979Z,5.17
2018-12-26T10:12:19.519Z,5.17
2018-12-26T10:14:48.618Z,5.57
2018-12-26T10:17:18.026Z,6.13
2018-12-26T10:19:50.190Z,4.83
2018-12-26T10:22:19.801Z,5.23
2018-12-26T10:24:49.289Z,5.67
2018-12-26T10:27:21.557Z,5.40
2018-12-26T10:29:50.994Z,5.57
2018-12-26T10:32:20.509Z,6.23
2018-12-26T10:34:51.862Z,5.27
2018-12-26T10:37:21.377Z,5.23
2018-12-26T10:39:50.994Z,6.13
2018-12-26T10:42:25.723Z,5.07
2018-12-26T10:44:57.705Z,4.50
2018-12-26T10:47:28.101Z,4.73
2018-12-26T10:49:58.393Z,5.37
2018-12-26T10:52:28.829Z,5.33
2018-12-26T10:54:58.056Z,5.40
2018-12-26T10:57:27.667Z,4.40
2018-12-26T10:59:57.663Z,4.80
2018-12-26T11:02:27.524Z,5.00
2018-12-26T11:04:58.329Z,5.30
2018-12-26T11:07:28.134Z,4.87
2018-12-26T11:09:58.078Z,5.07
2018-12-26T11:12:28.102Z,5.20
2018-12-26T11:14:58.361Z,5.37
2018-12-26T11:17:28.151Z,7.57
2018-12-26T11:19:57.763Z,8.47
2018-12-26T11:22:28.370Z,8.47
2018-12-26T11:24:58.614Z,7.30
2018-12-26T11:27:28.278Z,8.00
2018-12-26T11:29:57.709Z,8.30
2018-12-26T11:32:28.113Z,7.83
2018-12-26T11:34:57.700Z,8.33
2018-12-26T11:37:30.451Z,8.30
2018-12-26T11:39:59.987Z,7.87
2018-12-26T11:42:31.838Z,8.13
2018-12-26T11:45:01.858Z,7.83
2018-12-26T11:47:31.626Z,9.30
2018-12-26T11:50:02.095Z,8.67
2018-12-26T11:52:32.885Z,9.33
2018-12-26T11:55:02.410Z,7.67
2018-12-26T11:57:31.909Z,9.13
2018-12-26T12:00:02.309Z,9.57
2018-12-26T12:02:31.802Z,10.50
2018-12-26T12:05:07.257Z,10.00
2018-12-26T12:07:36.693Z,10.30
2018-12-26T12:10:07.338Z,9.93
2018-12-26T12:12:36.860Z,9.43
2018-12-26T12:15:06.837Z,10.33
2018-12-26T12:17:37.358Z,10.80
2018-12-26T12:20:09.757Z,11.17
2018-12-26T12:22:40.993Z,11.33
2018-12-26T12:25:10.465Z,10.50
2018-12-26T12:27:41.234Z,10.23
2018-12-26T12:30:10.758Z,11.53
2018-12-26T12:32:39.899Z,11.43
2018-12-26T12:35:10.013Z,11.10
2018-12-26T12:37:41.142Z,11.90
2018-12-26T12:40:12.185Z,11.60
2018-12-26T12:42:41.718Z,11.27
2018-12-26T12:45:10.926Z,10.90
2018-12-26T12:47:42.098Z,11.57
2018-12-26T12:50:13.049Z,11.23
2018-12-26T12:52:42.567Z,11.73
2018-12-26T12:55:12.330Z,10.83
2018-12-26T12:57:42.439Z,10.23
2018-12-26T13:00:12.831Z,10.90
2018-12-26T13:02:41.954Z,11.07
2018-12-26T13:05:11.827Z,11.03
2018-12-26T13:07:41.295Z,12.03
2018-12-26T13:10:10.912Z,12.33
2018-12-26T13:12:40.010Z,11.13
2018-12-26T13:15:09.422Z,10.97
2018-12-26T13:17:39.966Z,11.10
2018-12-26T13:20:10.247Z,11.57
2018-12-26T13:22:39.916Z,11.43
2018-12-26T13:25:10.142Z,11.40
2018-12-26T13:27:39.263Z,12.07
2018-12-26T13:30:09.944Z,12.23
2018-12-26T13:32:39.659Z,11.43
2018-12-26T13:35:10.442Z,11.33
2018-12-26T13:37:44.186Z,11.60
2018-12-26T13:40:33.676Z,11.23
2018-12-26T13:43:04.199Z,10.90
2018-12-26T13:45:33.623Z,11.30
2018-12-26T13:48:04.937Z,11.23
2018-12-26T13:50:36.368Z,12.27
2018-12-26T13:53:06.472Z,11.53
2018-12-26T13:55:36.749Z,11.53
2018-12-26T13:58:07.933Z,12.47
2018-12-26T14:00:37.588Z,11.53
2018-12-26T14:03:08.005Z,12.40
2018-12-26T14:05:38.970Z,10.77
2018-12-26T14:08:17.582Z,11.63
2018-12-26T14:13:14.930Z,12.73
2018-12-26T14:15:44.392Z,12.23
2018-12-26T14:18:14.649Z,10.80
2018-12-26T14:20:44.461Z,12.57
2018-12-26T14:23:14.179Z,12.13
2018-12-26T14:25:43.841Z,11.57
2018-12-26T14:28:13.508Z,12.63
2018-12-26T14:30:44.856Z,13.77
2018-12-26T14:33:21.310Z,12.97
2018-12-26T14:35:55.578Z,11.77
2018-12-26T14:38:30.229Z,11.37
2018-12-26T14:41:02.665Z,12.63
2018-12-26T14:43:37.638Z,15.05
2018-12-26T14:46:10.226Z,13.07
2018-12-26T14:48:45.934Z,12.77
2018-12-26T14:51:16.113Z,12.30
2018-12-26T14:53:46.354Z,12.50
2018-12-26T14:56:16.638Z,12.37
2018-12-26T14:58:47.911Z,12.43
2018-12-26T15:01:22.867Z,12.50
2018-12-26T15:03:53.850Z,12.50
2018-12-26T15:06:24.434Z,14.23
2018-12-26T15:09:01.109Z,12.77
2018-12-26T15:11:31.099Z,12.93
2018-12-26T15:14:00.312Z,12.63
2018-12-26T15:16:29.988Z,12.53
2018-12-26T15:19:16.782Z,13.43
2018-12-26T15:21:46.201Z,13.00
2018-12-26T15:24:17.688Z,13.43
2018-12-26T15:26:49.206Z,13.73
2018-12-26T15:29:20.426Z,13.07
2018-12-26T15:31:52.033Z,12.80
2018-12-26T15:34:23.385Z,12.27
2018-12-26T15:36:52.939Z,12.70
2018-12-26T15:39:22.695Z,14.03
2018-12-26T15:41:52.019Z,16.93
2018-12-26T15:44:21.370Z,13.20
2018-12-26T15:46:51.439Z,15.20
2018-12-26T15:49:23.300Z,15.13
2018-12-26T15:51:52.814Z,11.47
2018-12-26T15:54:23.980Z,13.33
2018-12-26T15:56:54.719Z,13.00
2018-12-26T15:59:24.911Z,11.17
2018-12-26T16:01:57.139Z,14.13
2018-12-26T16:04:30.312Z,14.47
2018-12-26T16:07:00.550Z,13.00
2018-12-26T16:09:30.234Z,13.67
2018-12-26T16:12:01.459Z,13.03
2018-12-26T16:14:31.194Z,13.70
2018-12-26T16:17:00.778Z,13.17
2018-12-26T16:19:31.602Z,12.20
2018-12-26T16:22:03.408Z,12.63
2018-12-26T16:24:33.551Z,14.30
2018-12-26T16:27:02.957Z,12.90
2018-12-26T16:29:33.571Z,13.13
2018-12-26T16:32:03.831Z,14.10
2018-12-26T16:34:33.812Z,13.20
2018-12-26T16:37:04.198Z,13.97
2018-12-26T16:39:36.811Z,15.33
2018-12-26T16:42:06.114Z,14.00
2018-12-26T16:44:37.446Z,13.93
2018-12-26T16:47:07.336Z,13.60
2018-12-26T16:49:38.179Z,12.87
2018-12-26T16:52:07.797Z,14.30
2018-12-26T16:54:39.821Z,14.03
2018-12-26T16:57:10.284Z,14.10
2018-12-26T16:59:40.587Z,13.67
2018-12-26T17:02:10.107Z,14.23
2018-12-26T17:04:41.875Z,14.07
2018-12-26T17:07:13.163Z,15.43
2018-12-26T17:09:45.440Z,14.10
2018-12-26T17:12:15.828Z,15.03
2018-12-26T17:14:46.654Z,14.63
2018-12-26T17:17:21.805Z,13.87
2018-12-26T17:19:51.821Z,14.47
2018-12-26T17:22:34.601Z,14.40
2018-12-26T17:25:09.002Z,13.47
2018-12-26T17:27:38.657Z,13.97
2018-12-26T17:30:12.517Z,14.40
2018-12-26T17:32:43.721Z,14.83
2018-12-26T17:35:13.337Z,14.07
2018-12-26T17:37:43.247Z,15.23
2018-12-26T17:40:12.857Z,15.53
2018-12-26T17:42:43.354Z,16.10
2018-12-26T17:45:19.497Z,14.27
2018-12-26T17:47:49.405Z,15.00
2018-12-26T17:50:44.180Z,16.93
2018-12-26T17:53:22.569Z,16.13
2018-12-26T17:56:14.539Z,16.07
2018-12-26T17:59:05.314Z,15.13
2018-12-26T18:01:48.971Z,17.07
2018-12-26T18:04:19.050Z,15.80
2018-12-26T18:06:48.899Z,17.50
2018-12-26T18:09:22.765Z,18.50
2018-12-26T18:11:52.293Z,17.93
2018-12-26T18:14:22.607Z,17.33
2018-12-26T18:16:52.761Z,16.30
2018-12-26T18:19:22.027Z,18.40
2018-12-26T18:21:52.794Z,15.03
2018-12-26T18:24:22.599Z,15.47
2018-12-26T18:26:53.687Z,17.63
2018-12-26T18:29:23.093Z,20.50
2018-12-26T18:31:52.883Z,17.77
2018-12-26T18:34:22.653Z,17.47
2018-12-26T18:36:54.018Z,16.70
2018-12-26T18:39:25.497Z,17.43
2018-12-26T18:41:55.017Z,18.57
2018-12-26T18:44:24.571Z,16.73
2018-12-26T18:46:54.126Z,17.50
2018-12-26T18:49:24.832Z,15.73
2018-12-26T18:51:55.189Z,16.57
2018-12-26T18:54:24.454Z,18.23
2018-12-26T18:56:54.212Z,15.80
2018-12-26T18:59:24.045Z,11.17
2018-12-26T19:01:54.811Z,13.80
2018-12-26T19:04:24.393Z,13.83
2018-12-26T19:06:54.387Z,14.67
2018-12-26T19:09:23.552Z,14.83
2018-12-26T19:11:55.226Z,15.43
2018-12-26T19:14:25.248Z,16.27
2018-12-26T19:16:54.831Z,14.53
2018-12-26T19:19:25.218Z,13.83
2018-12-26T19:21:54.705Z,12.37
2018-12-26T19:24:24.181Z,12.40
2018-12-26T19:26:53.639Z,14.47
2018-12-26T19:29:24.085Z,11.70
2018-12-26T19:31:53.857Z,11.90
2018-12-26T19:34:23.552Z,12.83
2018-12-26T19:36:55.822Z,17.67
2018-12-26T19:39:25.366Z,18.83
2018-12-26T19:41:55.250Z,11.50
2018-12-26T19:44:26.202Z,14.03
2018-12-26T19:46:57.288Z,14.73
2018-12-26T19:49:28.160Z,13.87
2018-12-26T19:52:01.829Z,13.70
2018-12-26T19:54:30.879Z,12.47
2018-12-26T19:57:00.103Z,14.23
2018-12-26T19:59:30.307Z,15.50
2018-12-26T20:02:00.743Z,13.30
2018-12-26T20:04:33.611Z,13.77
2018-12-26T20:07:05.422Z,12.43
2018-12-26T20:09:36.226Z,14.77
2018-12-26T20:12:11.242Z,13.40
2018-12-26T20:14:41.233Z,13.93
2018-12-26T20:17:14.575Z,13.53
2018-12-26T20:19:43.990Z,13.07
2018-12-26T20:22:13.866Z,13.20
2018-12-26T20:24:43.847Z,17.10
2018-12-26T20:27:14.658Z,19.07
2018-12-26T20:29:47.043Z,14.37
2018-12-26T20:32:16.790Z,18.67
2018-12-26T20:34:46.464Z,16.77
2018-12-26T20:37:16.386Z,14.50
2018-12-26T20:39:50.038Z,16.43
2018-12-26T20:42:21.173Z,18.00
2018-12-26T20:44:50.679Z,14.47
2018-12-26T20:47:28.878Z,15.27
2018-12-26T20:49:58.819Z,15.97
2018-12-26T20:52:28.498Z,17.40
2018-12-26T20:54:57.982Z,17.70
2018-12-26T20:57:29.043Z,17.47
2018-12-26T21:00:00.166Z,18.30
2018-12-26T21:02:30.769Z,16.23
2018-12-26T21:05:00.992Z,12.50
2018-12-26T21:07:30.728Z,16.47
2018-12-26T21:10:01.666Z,16.57
2018-12-26T21:12:32.873Z,15.67
2018-12-26T21:15:03.483Z,16.67
2018-12-26T21:17:37.235Z,15.43
2018-12-26T21:20:07.965Z,17.40
2018-12-26T21:22:39.183Z,14.17
2018-12-26T21:25:10.789Z,16.50
2018-12-26T21:27:44.487Z,12.63
2018-12-26T21:30:17.166Z,17.80
2018-12-26T21:32:55.580Z,13.77
2018-12-26T21:35:25.308Z,13.47
2018-12-26T21:37:55.035Z,13.07
2018-12-26T21:40:24.405Z,13.83
2018-12-26T21:42:55.213Z,13.60
2018-12-26T21:45:24.997Z,14.87
2018-12-26T21:47:57.923Z,16.70
2018-12-26T21:50:51.743Z,15.50
2018-12-26T21:53:21.602Z,13.53
2018-12-26T21:55:59.778Z,16.77
2018-12-26T21:58:27.426Z,16.73
2018-12-26T22:00:58.908Z,19.60
2018-12-26T22:03:28.465Z,15.70
2018-12-26T22:06:02.805Z,18.57
2018-12-26T22:08:32.687Z,16.87
2018-12-26T22:11:05.280Z,14.70
2018-12-26T22:13:36.736Z,18.13
2018-12-26T22:16:09.913Z,15.60
2018-12-26T22:18:40.158Z,14.67
2018-12-26T22:21:09.683Z,18.00
2018-12-26T22:23:41.142Z,18.47
2018-12-26T22:26:10.771Z,14.20
2018-12-26T22:28:40.043Z,16.93
2018-12-26T22:31:11.823Z,15.77
2018-12-26T22:33:41.266Z,15.10
2018-12-26T22:36:14.007Z,17.57
2018-12-26T22:38:43.714Z,14.20
2018-12-26T22:41:13.162Z,16.93
2018-12-26T22:43:42.660Z,17.93
2018-12-26T22:46:12.539Z,15.60
2018-12-26T22:48:44.336Z,17.73
2018-12-26T22:51:14.040Z,19.80
2018-12-26T22:53:46.105Z,18.70
2018-12-26T22:56:15.214Z,15.60
2018-12-26T22:58:45.419Z,17.17
2018-12-26T23:01:16.659Z,19.07
2018-12-26T23:03:49.003Z,17.57
2018-12-26T23:06:18.512Z,17.37
2018-12-26T23:08:48.295Z,17.07
2018-12-26T23:11:20.920Z,16.00
2018-12-26T23:13:50.250Z,16.40
2018-12-26T23:16:21.246Z,17.40
2018-12-26T23:18:51.002Z,17.47
2018-12-26T23:21:20.873Z,14.63
2018-12-26T23:23:51.202Z,17.47
2018-12-26T23:26:20.519Z,15.57
2018-12-26T23:28:50.059Z,18.47
2018-12-26T23:31:22.336Z,15.93
2018-12-26T23:33:54.121Z,17.50
2018-12-26T23:36:26.499Z,15.63
2018-12-26T23:38:58.382Z,15.90
2018-12-26T23:41:29.972Z,16.67
2018-12-26T23:43:59.486Z,15.50
2018-12-26T23:46:30.459Z,14.97
2018-12-26T23:49:01.604Z,16.30
2018-12-26T23:51:32.574Z,15.33
2018-12-26T23:54:02.221Z,17.40
2018-12-26T23:56:31.849Z,17.00
2018-12-26T23:59:03.457Z,16.70
